Time;durP1;ratioP1;P1;durP2;ratioP2;P2;SDS_P1;SDS_P2;PMS_P1;PMS_P2;Temp;Humidity;BMP_temperature;BMP_pressure;BME280_temperature;BME280_humidity;BME280_pressure;Samples;Min_cycle;Max_cycle;Signal;HPM_P1;HPM_P2
2022/05/07 00:01:20;;;;;;;17.37;13.30;;;;;;;;;;5055636;28;20444;-73
2022/05/07 00:03:47;;;;;;;19.17;12.17;;;;;;;;;;5054890;28;20488;-72
2022/05/07 00:06:14;;;;;;;14.57;11.00;;;;;;;;;;5055327;28;20449;-72
2022/05/07 00:08:41;;;;;;;14.93;10.70;;;;;;;;;;5054836;28;20477;-73
2022/05/07 00:11:09;;;;;;;13.00;11.70;;;;;;;;;;5055425;28;20551;-72
2022/05/07 00:13:37;;;;;;;12.33;11.03;;;;;;;;;;5054630;28;20441;-73
2022/05/07 00:18:49;;;;;;;14.43;11.70;;;;;;;;;;5054995;28;20515;-72
2022/05/07 00:21:17;;;;;;;16.13;12.20;;;;;;;;;;5055006;28;20456;-72
2022/05/07 00:23:44;;;;;;;13.43;11.40;;;;;;;;;;5055251;28;20818;-72
2022/05/07 00:26:11;;;;;;;14.07;12.70;;;;;;;;;;5054930;28;20488;-72
2022/05/07 00:28:40;;;;;;;15.60;13.43;;;;;;;;;;5054760;28;20433;-72
2022/05/07 00:31:07;;;;;;;15.47;11.77;;;;;;;;;;5054557;28;20433;-72
2022/05/07 00:33:34;;;;;;;12.30;11.10;;;;;;;;;;5054351;28;20456;-72
2022/05/07 00:36:01;;;;;;;14.03;12.20;;;;;;;;;;5054413;28;20453;-73
2022/05/07 00:38:28;;;;;;;21.43;12.10;;;;;;;;;;5054426;28;20541;-72
2022/05/07 00:40:56;;;;;;;17.00;12.03;;;;;;;;;;5055100;28;20445;-72
2022/05/07 00:43:23;;;;;;;15.90;13.10;;;;;;;;;;5054438;28;20481;-72
2022/05/07 00:45:53;;;;;;;14.40;12.70;;;;;;;;;;5054251;28;20926;-72
2022/05/07 00:48:20;;;;;;;14.97;12.90;;;;;;;;;;5054763;28;20447;-72
2022/05/07 00:53:34;;;;;;;14.90;13.03;;;;;;;;;;5054203;28;20765;-72
2022/05/07 00:56:01;;;;;;;14.57;13.07;;;;;;;;;;5054065;28;20446;-73
2022/05/07 00:58:28;;;;;;;17.00;13.90;;;;;;;;;;5054217;28;20438;-72
2022/05/07 01:00:57;;;;;;;15.33;13.03;;;;;;;;;;5053903;28;20441;-72
2022/05/07 01:03:24;;;;;;;16.03;12.80;;;;;;;;;;5053660;28;20473;-73
2022/05/07 01:05:51;;;;;;;17.50;13.57;;;;;;;;;;5053700;28;20480;-71
2022/05/07 01:08:20;;;;;;;15.20;12.70;;;;;;;;;;5053699;28;20477;-72
2022/05/07 01:10:47;;;;;;;15.13;13.33;;;;;;;;;;5053914;28;20880;-72
2022/05/07 01:13:14;;;;;;;18.17;13.30;;;;;;;;;;5054013;28;20447;-73
2022/05/07 01:15:44;;;;;;;18.87;13.63;;;;;;;;;;5053887;28;20442;-73
2022/05/07 01:18:13;;;;;;;18.87;13.60;;;;;;;;;;5053863;28;20452;-72
2022/05/07 01:20:40;;;;;;;21.07;14.60;;;;;;;;;;5053480;28;20532;-72
2022/05/07 01:23:09;;;;;;;16.93;14.43;;;;;;;;;;5053487;28;20954;-72
2022/05/07 01:25:37;;;;;;;18.00;13.20;;;;;;;;;;5053775;28;20442;-72
2022/05/07 01:28:04;;;;;;;15.03;13.03;;;;;;;;;;5053826;28;20492;-73
2022/05/07 01:30:32;;;;;;;16.50;14.80;;;;;;;;;;5053354;28;20446;-72
2022/05/07 01:32:59;;;;;;;15.47;12.87;;;;;;;;;;5053492;28;20469;-72
2022/05/07 01:35:26;;;;;;;15.63;13.73;;;;;;;;;;5054102;28;20441;-72
2022/05/07 01:37:53;;;;;;;19.60;13.40;;;;;;;;;;5054005;28;20986;-72
2022/05/07 01:40:22;;;;;;;18.47;14.37;;;;;;;;;;5053508;28;20449;-71
2022/05/07 01:42:49;;;;;;;15.93;13.60;;;;;;;;;;5053253;28;20810;-71
2022/05/07 01:45:16;;;;;;;14.30;12.80;;;;;;;;;;5053298;28;20481;-73
2022/05/07 01:50:28;;;;;;;20.30;13.87;;;;;;;;;;5053346;28;20401;-71
2022/05/07 01:52:56;;;;;;;13.10;11.80;;;;;;;;;;5053751;28;20521;-72
2022/05/07 01:55:24;;;;;;;17.00;14.67;;;;;;;;;;5053345;28;20444;-72
2022/05/07 01:57:52;;;;;;;18.13;13.27;;;;;;;;;;5053399;28;20453;-72
2022/05/07 02:00:19;;;;;;;17.37;13.60;;;;;;;;;;5053035;28;21004;-72
2022/05/07 02:02:46;;;;;;;18.60;13.77;;;;;;;;;;5053728;28;20564;-72
2022/05/07 02:05:14;;;;;;;16.40;13.70;;;;;;;;;;5053160;28;20568;-72
2022/05/07 02:07:41;;;;;;;15.13;13.43;;;;;;;;;;5052808;28;20476;-72
2022/05/07 02:10:08;;;;;;;15.13;13.37;;;;;;;;;;5052866;28;20461;-72
2022/05/07 02:12:37;;;;;;;15.90;13.90;;;;;;;;;;5054049;28;20453;-72
2022/05/07 02:15:05;;;;;;;17.40;13.67;;;;;;;;;;5052935;28;20445;-72
2022/05/07 02:17:32;;;;;;;17.07;14.27;;;;;;;;;;5053568;28;20448;-73
2022/05/07 02:19:59;;;;;;;16.87;14.73;;;;;;;;;;5053164;28;20455;-72
2022/05/07 02:22:27;;;;;;;16.10;14.47;;;;;;;;;;5053213;28;20448;-72
2022/05/07 02:24:54;;;;;;;15.57;13.97;;;;;;;;;;5052727;28;20487;-73
2022/05/07 02:27:21;;;;;;;15.60;13.20;;;;;;;;;;5052849;28;20457;-73
2022/05/07 02:29:50;;;;;;;17.60;14.67;;;;;;;;;;5053037;28;20448;-72
2022/05/07 02:32:17;;;;;;;23.50;14.60;;;;;;;;;;5052755;28;20449;-72
2022/05/07 02:34:44;;;;;;;15.73;14.07;;;;;;;;;;5052682;28;20453;-73
2022/05/07 02:37:12;;;;;;;17.80;14.50;;;;;;;;;;5054093;28;20445;-72
2022/05/07 02:39:39;;;;;;;15.93;14.20;;;;;;;;;;5056382;28;20449;-72
2022/05/07 02:44:52;;;;;;;17.03;13.80;;;;;;;;;;5056538;28;20460;-72
2022/05/07 02:47:20;;;;;;;16.33;14.23;;;;;;;;;;5056456;28;20942;-72
2022/05/07 02:49:47;;;;;;;17.80;14.23;;;;;;;;;;5056622;28;20468;-72
2022/05/07 02:52:14;;;;;;;18.37;14.80;;;;;;;;;;5056407;28;20455;-72
2022/05/07 02:54:41;;;;;;;17.77;14.23;;;;;;;;;;5056536;28;20452;-73
2022/05/07 02:57:08;;;;;;;19.20;15.13;;;;;;;;;;5056241;28;20446;-73
2022/05/07 02:59:38;;;;;;;16.93;15.13;;;;;;;;;;5056612;28;20468;-73
2022/05/07 03:02:07;;;;;;;23.87;14.83;;;;;;;;;;5056062;28;20453;-74
2022/05/07 03:04:34;;;;;;;19.20;14.83;;;;;;;;;;5056252;28;20479;-74
2022/05/07 03:07:01;;;;;;;15.80;14.10;;;;;;;;;;5056277;28;20442;-73
2022/05/07 03:09:29;;;;;;;17.13;15.40;;;;;;;;;;5056339;28;20573;-73
2022/05/07 03:11:56;;;;;;;18.33;14.23;;;;;;;;;;5055872;28;20448;-74
2022/05/07 03:14:25;;;;;;;16.13;14.10;;;;;;;;;;5055902;28;20445;-73
2022/05/07 03:16:52;;;;;;;16.87;14.93;;;;;;;;;;5055701;28;20934;-73
2022/05/07 03:19:20;;;;;;;17.17;14.50;;;;;;;;;;5056148;28;20460;-73
2022/05/07 03:21:48;;;;;;;14.47;12.87;;;;;;;;;;5056044;28;20445;-73
2022/05/07 03:24:15;;;;;;;14.60;12.87;;;;;;;;;;5056123;28;20472;-73
2022/05/07 03:26:42;;;;;;;21.53;14.00;;;;;;;;;;5055799;28;20445;-73
2022/05/07 03:29:09;;;;;;;15.87;14.10;;;;;;;;;;5055529;28;20437;-73
2022/05/07 03:31:37;;;;;;;15.93;14.20;;;;;;;;;;5055881;28;20532;-74
2022/05/07 03:34:04;;;;;;;16.00;14.33;;;;;;;;;;5056153;28;20441;-73
2022/05/07 03:36:33;;;;;;;16.10;13.17;;;;;;;;;;5055371;28;20449;-75
2022/05/07 03:39:00;;;;;;;17.50;15.13;;;;;;;;;;5055731;28;20453;-73
2022/05/07 03:41:27;;;;;;;16.53;14.70;;;;;;;;;;5055739;28;20548;-74
2022/05/07 03:43:54;;;;;;;21.60;16.83;;;;;;;;;;5055678;28;20455;-73
2022/05/07 03:46:24;;;;;;;17.27;14.80;;;;;;;;;;5055863;28;20450;-73
2022/05/07 03:48:52;;;;;;;15.00;13.40;;;;;;;;;;5053205;28;20442;-74
2022/05/07 03:51:19;;;;;;;18.37;15.93;;;;;;;;;;5055408;28;20236;-74
2022/05/07 03:53:46;;;;;;;21.63;15.50;;;;;;;;;;5056127;28;20523;-74
2022/05/07 03:56:14;;;;;;;16.50;13.88;;;;;;;;;;5055406;28;20236;-75
2022/05/07 03:58:41;;;;;;;17.02;15.25;;;;;;;;;;5055382;28;20198;-74
2022/05/07 04:01:09;;;;;;;17.75;15.50;;;;;;;;;;5055181;28;20221;-74
2022/05/07 04:03:36;;;;;;;19.83;15.03;;;;;;;;;;5055216;28;20202;-74
2022/05/07 04:06:04;;;;;;;20.87;15.97;;;;;;;;;;5054950;28;20504;-74
2022/05/07 04:08:31;;;;;;;21.30;16.40;;;;;;;;;;5054628;28;20478;-74
2022/05/07 04:11:01;;;;;;;18.40;15.43;;;;;;;;;;5054655;28;20448;-73
2022/05/07 04:13:28;;;;;;;18.87;15.40;;;;;;;;;;5055398;28;20511;-74
2022/05/07 04:15:55;;;;;;;16.90;15.20;;;;;;;;;;5055285;28;20441;-73
2022/05/07 04:18:23;;;;;;;18.27;16.23;;;;;;;;;;5055029;28;20221;-73
2022/05/07 04:20:50;;;;;;;18.80;15.65;;;;;;;;;;5055026;28;20448;-73
2022/05/07 04:23:17;;;;;;;17.70;15.20;;;;;;;;;;5054757;28;20191;-73
2022/05/07 04:25:44;;;;;;;16.73;14.93;;;;;;;;;;5054682;28;20473;-73
2022/05/07 04:28:13;;;;;;;19.20;15.77;;;;;;;;;;5054627;28;20445;-74
2022/05/07 04:30:41;;;;;;;18.53;15.40;;;;;;;;;;5054757;28;20479;-73
2022/05/07 04:33:08;;;;;;;16.37;14.67;;;;;;;;;;5054194;28;20930;-73
2022/05/07 04:35:35;;;;;;;17.40;14.50;;;;;;;;;;5054573;28;20449;-73
2022/05/07 04:38:02;;;;;;;16.40;14.67;;;;;;;;;;5054215;28;20453;-73
2022/05/07 04:40:29;;;;;;;17.80;14.63;;;;;;;;;;5054197;28;20448;-73
2022/05/07 04:42:57;;;;;;;22.17;15.90;;;;;;;;;;5054424;28;20499;-73
2022/05/07 04:45:27;;;;;;;21.37;15.37;;;;;;;;;;5054514;28;20477;-73
2022/05/07 04:47:54;;;;;;;18.80;15.67;;;;;;;;;;5056106;28;20429;-73
2022/05/07 04:50:21;;;;;;;16.73;15.03;;;;;;;;;;5074530;28;20808;-74
2022/05/07 04:52:49;;;;;;;18.33;15.10;;;;;;;;;;5074288;28;20443;-73
2022/05/07 04:55:16;;;;;;;19.47;16.40;;;;;;;;;;5074198;28;20446;-73
2022/05/07 04:57:43;;;;;;;16.20;14.47;;;;;;;;;;5074273;28;20443;-73
2022/05/07 05:00:12;;;;;;;19.03;15.60;;;;;;;;;;5073525;28;20444;-72
2022/05/07 05:02:40;;;;;;;16.97;14.87;;;;;;;;;;5073952;28;20519;-73
2022/05/07 05:05:08;;;;;;;17.87;16.10;;;;;;;;;;5074337;28;20476;-73
2022/05/07 05:07:36;;;;;;;21.43;16.57;;;;;;;;;;5073532;28;20479;-73
2022/05/07 05:10:03;;;;;;;18.40;15.17;;;;;;;;;;5073974;28;20456;-73
2022/05/07 05:12:30;;;;;;;18.10;16.20;;;;;;;;;;5073720;28;20437;-73
2022/05/07 05:15:04;;;;;;;17.93;16.07;;;;;;;;;;5073947;28;20503;-73
2022/05/07 05:17:31;;;;;;;19.30;15.53;;;;;;;;;;5073476;28;20428;-73
2022/05/07 05:20:00;;;;;;;22.90;16.17;;;;;;;;;;5073500;28;20469;-73
2022/05/07 05:22:27;;;;;;;19.13;17.10;;;;;;;;;;5073642;28;20463;-74
2022/05/07 05:24:55;;;;;;;20.40;18.17;;;;;;;;;;5073286;28;20518;-73
2022/05/07 05:27:22;;;;;;;19.50;17.03;;;;;;;;;;5073273;28;20447;-73
2022/05/07 05:29:49;;;;;;;18.57;16.50;;;;;;;;;;5073597;28;20440;-73
2022/05/07 05:32:18;;;;;;;19.03;15.63;;;;;;;;;;5073479;28;20436;-73
2022/05/07 05:34:46;;;;;;;25.60;16.73;;;;;;;;;;5073252;28;20456;-73
2022/05/07 05:37:15;;;;;;;19.33;16.47;;;;;;;;;;5073470;28;20447;-73
2022/05/07 05:39:43;;;;;;;20.00;17.70;;;;;;;;;;5073667;28;20456;-74
2022/05/07 05:42:11;;;;;;;18.03;15.93;;;;;;;;;;5073360;28;20441;-73
2022/05/07 05:44:38;;;;;;;19.83;15.87;;;;;;;;;;5073087;28;20441;-73
2022/05/07 05:47:06;;;;;;;19.40;16.57;;;;;;;;;;5073281;28;20445;-74
2022/05/07 05:49:34;;;;;;;18.83;16.67;;;;;;;;;;5057256;28;20442;-73
2022/05/07 05:52:02;;;;;;;20.03;16.83;;;;;;;;;;5053044;28;20450;-73
2022/05/07 05:54:31;;;;;;;19.53;17.43;;;;;;;;;;5053189;28;20449;-73
2022/05/07 05:56:58;;;;;;;21.90;16.67;;;;;;;;;;5053016;28;20444;-73
2022/05/07 05:59:25;;;;;;;23.90;16.60;;;;;;;;;;5053173;28;20521;-73
2022/05/07 06:01:53;;;;;;;22.10;18.17;;;;;;;;;;5053301;28;20442;-73
2022/05/07 06:04:20;;;;;;;19.77;16.97;;;;;;;;;;5053182;28;20484;-73
2022/05/07 06:06:47;;;;;;;23.50;17.37;;;;;;;;;;5053200;28;20481;-73
2022/05/07 06:09:14;;;;;;;19.40;16.80;;;;;;;;;;5052539;28;20516;-73
2022/05/07 06:11:43;;;;;;;20.93;16.27;;;;;;;;;;5053151;28;20441;-73
2022/05/07 06:14:10;;;;;;;21.30;17.00;;;;;;;;;;5057137;28;20433;-74
2022/05/07 06:16:38;;;;;;;24.10;17.53;;;;;;;;;;5057395;28;20446;-73
2022/05/07 06:19:05;;;;;;;23.23;17.70;;;;;;;;;;5056595;28;20441;-73
2022/05/07 06:21:33;;;;;;;27.20;18.60;;;;;;;;;;5056768;28;20539;-73
2022/05/07 06:27:28;;;;;;;19.77;16.33;;;;;;;;;;5056666;28;20449;-73
2022/05/07 06:29:33;;;;;;;21.80;17.73;;;;;;;;;;5056606;28;20932;-73
2022/05/07 06:32:01;;;;;;;20.27;18.00;;;;;;;;;;5056865;28;20443;-73
2022/05/07 06:34:28;;;;;;;19.07;17.17;;;;;;;;;;5056833;28;20444;-73
2022/05/07 06:36:57;;;;;;;22.80;17.73;;;;;;;;;;5056832;28;20442;-73
2022/05/07 06:39:24;;;;;;;20.40;17.40;;;;;;;;;;5056217;28;20549;-73
2022/05/07 06:41:53;;;;;;;19.20;17.20;;;;;;;;;;5056661;28;20433;-73
2022/05/07 06:44:20;;;;;;;18.80;16.90;;;;;;;;;;5056552;28;20448;-73
2022/05/07 06:46:49;;;;;;;18.60;16.60;;;;;;;;;;5057033;28;20472;-73
2022/05/07 06:49:18;;;;;;;18.90;16.57;;;;;;;;;;5056213;28;20448;-73
2022/05/07 06:51:45;;;;;;;19.80;17.53;;;;;;;;;;5056178;28;20437;-73
2022/05/07 06:54:12;;;;;;;20.90;17.50;;;;;;;;;;5056337;28;20448;-73
2022/05/07 06:56:40;;;;;;;18.17;16.37;;;;;;;;;;5055965;28;20481;-73
2022/05/07 06:59:09;;;;;;;21.30;17.00;;;;;;;;;;5056361;28;20806;-73
2022/05/07 07:01:37;;;;;;;22.03;15.80;;;;;;;;;;5056070;28;20446;-73
2022/05/07 07:04:04;;;;;;;24.63;17.13;;;;;;;;;;5056306;28;20781;-73
2022/05/07 07:06:31;;;;;;;21.00;16.00;;;;;;;;;;5056170;28;20479;-73
2022/05/07 07:08:58;;;;;;;21.00;15.63;;;;;;;;;;5055908;28;20828;-73
2022/05/07 07:11:25;;;;;;;18.83;16.20;;;;;;;;;;5056312;28;20438;-73
2022/05/07 07:13:53;;;;;;;20.77;16.40;;;;;;;;;;5055659;28;20450;-73
2022/05/07 07:16:22;;;;;;;20.43;16.03;;;;;;;;;;5055719;28;20446;-73
2022/05/07 07:18:49;;;;;;;21.43;16.17;;;;;;;;;;5055294;28;20453;-73
2022/05/07 07:21:16;;;;;;;24.20;16.27;;;;;;;;;;5056204;28;20477;-72
2022/05/07 07:23:43;;;;;;;17.50;15.60;;;;;;;;;;5055684;28;20444;-72
2022/05/07 07:26:10;;;;;;;21.70;16.53;;;;;;;;;;5056047;28;20481;-73
2022/05/07 07:28:38;;;;;;;21.53;17.60;;;;;;;;;;5055598;28;20968;-73
2022/05/07 07:31:05;;;;;;;18.27;16.40;;;;;;;;;;5056085;28;20442;-72
2022/05/07 07:33:33;;;;;;;21.73;17.10;;;;;;;;;;5055973;28;20544;-73
2022/05/07 07:36:01;;;;;;;18.73;16.73;;;;;;;;;;5056202;28;20537;-73
2022/05/07 07:38:29;;;;;;;19.43;16.87;;;;;;;;;;5055824;28;20453;-73
2022/05/07 07:40:56;;;;;;;19.80;16.93;;;;;;;;;;5055648;28;20520;-73
2022/05/07 07:43:23;;;;;;;23.20;18.07;;;;;;;;;;5055384;28;20450;-72
2022/05/07 07:48:39;;;;;;;26.33;19.23;;;;;;;;;;5055529;28;20396;-73
2022/05/07 07:51:06;;;;;;;25.17;21.63;;;;;;;;;;5055580;28;20437;-73
2022/05/07 07:53:34;;;;;;;25.67;20.80;;;;;;;;;;5056329;28;20442;-73
2022/05/07 07:56:01;;;;;;;24.57;20.87;;;;;;;;;;5055420;28;20808;-73
2022/05/07 07:58:28;;;;;;;32.43;22.90;;;;;;;;;;5055613;28;20434;-73
2022/05/07 08:00:56;;;;;;;36.77;21.50;;;;;;;;;;5055412;28;20548;-73
2022/05/07 08:03:23;;;;;;;28.63;23.70;;;;;;;;;;5055580;28;20438;-73
2022/05/07 08:05:52;;;;;;;26.07;21.30;;;;;;;;;;5055280;28;20475;-73
2022/05/07 08:13:50;;;;;;;25.63;22.97;;;;;;;;;;5054872;28;20789;-72
2022/05/07 08:16:18;;;;;;;27.00;23.40;;;;;;;;;;5055034;28;21014;-72
2022/05/07 08:18:45;;;;;;;29.67;24.30;;;;;;;;;;5054758;28;20445;-72
2022/05/07 08:21:14;;;;;;;30.93;24.53;;;;;;;;;;5054889;28;20442;-72
2022/05/07 08:23:42;;;;;;;30.00;25.50;;;;;;;;;;5054954;28;20533;-72
2022/05/07 08:26:09;;;;;;;33.43;26.37;;;;;;;;;;5054831;28;20469;-72
2022/05/07 08:28:37;;;;;;;29.73;26.53;;;;;;;;;;5054614;28;20446;-72
2022/05/07 08:31:05;;;;;;;32.90;26.43;;;;;;;;;;5054737;28;20445;-72
2022/05/07 08:33:33;;;;;;;36.23;25.97;;;;;;;;;;5054722;28;20533;-72
2022/05/07 08:36:00;;;;;;;29.57;26.20;;;;;;;;;;5054177;28;20441;-72
2022/05/07 08:38:28;;;;;;;32.13;26.60;;;;;;;;;;5054410;28;20455;-74
2022/05/07 08:40:56;;;;;;;34.67;28.33;;;;;;;;;;5054827;28;20434;-73
2022/05/07 08:43:23;;;;;;;29.20;25.50;;;;;;;;;;5054251;28;20537;-74
2022/05/07 08:45:51;;;;;;;29.73;26.53;;;;;;;;;;5054309;28;20478;-73
2022/05/07 08:48:20;;;;;;;29.47;26.40;;;;;;;;;;5054551;28;20473;-73
2022/05/07 08:50:47;;;;;;;36.97;26.67;;;;;;;;;;5054003;28;20451;-75
2022/05/07 08:53:15;;;;;;;31.63;26.90;;;;;;;;;;5054528;28;20446;-74
2022/05/07 08:55:43;;;;;;;30.83;27.53;;;;;;;;;;5054179;28;20538;-73
2022/05/07 08:58:16;;;;;;;29.53;26.40;;;;;;;;;;5054002;28;20947;-73
2022/05/07 09:00:45;;;;;;;29.33;24.83;;;;;;;;;;5053891;28;20979;-73
2022/05/07 09:03:15;;;;;;;32.47;26.30;;;;;;;;;;5054156;28;20450;-72
2022/05/07 09:05:43;;;;;;;29.90;26.73;;;;;;;;;;5053718;28;20439;-72
2022/05/07 09:08:12;;;;;;;31.60;26.87;;;;;;;;;;5053927;28;20589;-75
2022/05/07 09:10:39;;;;;;;32.20;24.60;;;;;;;;;;5053739;28;20446;-72
2022/05/07 09:13:12;;;;;;;29.03;22.93;;;;;;;;;;5053500;28;20452;-73
2022/05/07 09:15:50;;;;;;;26.20;23.37;;;;;;;;;;5053840;28;20443;-71
2022/05/07 09:18:18;;;;;;;29.80;26.00;;;;;;;;;;5053512;28;20444;-71
2022/05/07 09:20:45;;;;;;;29.63;26.23;;;;;;;;;;5053158;28;20443;-71
2022/05/07 09:23:12;;;;;;;27.23;22.90;;;;;;;;;;5053786;28;20543;-72
2022/05/07 09:25:46;;;;;;;28.30;23.00;;;;;;;;;;5053391;28;20454;-72
2022/05/07 09:28:14;;;;;;;26.03;21.27;;;;;;;;;;5053624;28;20553;-72
2022/05/07 09:30:44;;;;;;;27.80;22.80;;;;;;;;;;5054042;28;20438;-72
2022/05/07 09:33:11;;;;;;;27.53;20.47;;;;;;;;;;5053687;28;20501;-72
2022/05/07 09:35:50;;;;;;;28.40;21.90;;;;;;;;;;5053563;28;20446;-72
2022/05/07 09:38:24;;;;;;;26.53;22.37;;;;;;;;;;5053487;28;20491;-72
2022/05/07 09:40:53;;;;;;;27.37;22.23;;;;;;;;;;5053858;28;20438;-72
2022/05/07 09:43:22;;;;;;;25.73;20.77;;;;;;;;;;5053416;28;21009;-72
2022/05/07 09:45:49;;;;;;;27.40;20.83;;;;;;;;;;5053178;28;20538;-71
2022/05/07 09:48:18;;;;;;;26.20;21.13;;;;;;;;;;5053132;28;20458;-71
2022/05/07 09:50:45;;;;;;;26.97;22.10;;;;;;;;;;5053378;28;20443;-72
2022/05/07 09:58:45;;;;;;;25.20;20.93;;;;;;;;;;5053319;28;20395;-72
2022/05/07 10:01:21;;;;;;;25.10;21.27;;;;;;;;;;5053301;28;20802;-72
2022/05/07 10:03:52;;;;;;;27.20;21.03;;;;;;;;;;5053627;28;20459;-72
2022/05/07 10:06:25;;;;;;;26.23;21.30;;;;;;;;;;5052847;28;20487;-72
2022/05/07 10:08:58;;;;;;;30.07;22.33;;;;;;;;;;5053121;28;20821;-72
2022/05/07 10:11:26;;;;;;;27.00;24.10;;;;;;;;;;5053365;28;20425;-72
2022/05/07 10:13:56;;;;;;;28.63;24.27;;;;;;;;;;5053478;28;20522;-72
2022/05/07 10:16:24;;;;;;;24.60;22.10;;;;;;;;;;5053600;28;20449;-72
2022/05/07 10:18:51;;;;;;;26.83;23.90;;;;;;;;;;5053173;28;20438;-72
2022/05/07 10:21:19;;;;;;;28.57;23.60;;;;;;;;;;5053053;28;20437;-71
2022/05/07 10:23:52;;;;;;;27.30;24.40;;;;;;;;;;5053145;28;20452;-72
2022/05/07 10:26:20;;;;;;;28.10;23.63;;;;;;;;;;5052953;28;21221;-72
2022/05/07 10:28:48;;;;;;;26.47;23.87;;;;;;;;;;5053641;28;20976;-72
2022/05/07 10:31:23;;;;;;;27.30;22.37;;;;;;;;;;5052792;28;20469;-72
2022/05/07 10:33:51;;;;;;;23.43;21.07;;;;;;;;;;5053202;28;20527;-72
2022/05/07 10:36:19;;;;;;;29.10;23.77;;;;;;;;;;5053371;28;20438;-73
2022/05/07 10:38:46;;;;;;;30.27;23.83;;;;;;;;;;5052736;28;20452;-72
2022/05/07 10:41:22;;;;;;;35.30;24.03;;;;;;;;;;5052564;28;21024;-71
2022/05/07 10:43:50;;;;;;;25.20;21.53;;;;;;;;;;5053021;28;20800;-72
2022/05/07 10:46:18;;;;;;;26.60;21.57;;;;;;;;;;5052804;28;20793;-72
2022/05/07 10:48:48;;;;;;;25.23;22.53;;;;;;;;;;5052830;28;20521;-72
2022/05/07 10:51:19;;;;;;;23.87;21.47;;;;;;;;;;5052568;28;20445;-72
2022/05/07 10:53:46;;;;;;;32.80;23.43;;;;;;;;;;5052663;28;20436;-72
2022/05/07 10:56:14;;;;;;;23.67;21.07;;;;;;;;;;5052478;28;20440;-72
2022/05/07 10:58:46;;;;;;;25.87;20.47;;;;;;;;;;5054639;28;20441;-72
2022/05/07 11:01:14;;;;;;;26.60;21.13;;;;;;;;;;5056281;28;20428;-71
2022/05/07 11:03:41;;;;;;;28.77;20.80;;;;;;;;;;5056103;28;20448;-72
2022/05/07 11:06:10;;;;;;;24.23;20.87;;;;;;;;;;5056067;28;20454;-72
2022/05/07 11:08:47;;;;;;;27.07;21.80;;;;;;;;;;5056190;28;20483;-72
2022/05/07 11:11:15;;;;;;;25.80;22.13;;;;;;;;;;5056936;28;20984;-73
2022/05/07 11:13:46;;;;;;;27.20;22.20;;;;;;;;;;5055889;28;20950;-72
2022/05/07 11:16:16;;;;;;;28.80;22.40;;;;;;;;;;5056218;28;20540;-72
2022/05/07 11:18:45;;;;;;;23.30;20.80;;;;;;;;;;5055771;28;20499;-72
2022/05/07 11:21:17;;;;;;;28.23;22.97;;;;;;;;;;5056075;28;20456;-72
2022/05/07 11:23:44;;;;;;;28.83;25.73;;;;;;;;;;5055674;28;20519;-72
2022/05/07 11:26:12;;;;;;;30.43;24.77;;;;;;;;;;5056265;28;20507;-72
2022/05/07 11:28:40;;;;;;;25.10;22.30;;;;;;;;;;5055779;28;20942;-73
2022/05/07 11:31:15;;;;;;;26.60;23.90;;;;;;;;;;5055819;28;20442;-73
2022/05/07 11:33:42;;;;;;;25.73;22.90;;;;;;;;;;5055513;28;20429;-74
2022/05/07 11:36:09;;;;;;;26.50;23.47;;;;;;;;;;5056088;28;20512;-74
2022/05/07 11:38:39;;;;;;;25.63;21.40;;;;;;;;;;5055664;28;20445;-73
2022/05/07 11:41:10;;;;;;;26.73;22.20;;;;;;;;;;5055516;28;20445;-73
2022/05/07 11:46:22;;;;;;;26.80;20.70;;;;;;;;;;5055470;28;20497;-73
2022/05/07 11:48:49;;;;;;;25.60;20.37;;;;;;;;;;5055283;28;20442;-73
2022/05/07 11:51:24;;;;;;;31.00;20.63;;;;;;;;;;5055607;28;20533;-73
2022/05/07 11:53:53;;;;;;;22.60;19.13;;;;;;;;;;5055477;28;20429;-73
2022/05/07 11:56:21;;;;;;;21.77;19.33;;;;;;;;;;5055386;28;20454;-73
2022/05/07 11:58:51;;;;;;;25.70;21.20;;;;;;;;;;5054940;28;20448;-73
2022/05/07 12:01:19;;;;;;;23.87;20.37;;;;;;;;;;5055196;28;20421;-73
2022/05/07 12:03:46;;;;;;;22.47;20.00;;;;;;;;;;5054942;28;20441;-73
2022/05/07 12:06:23;;;;;;;21.00;18.90;;;;;;;;;;5055291;28;20534;-74
2022/05/07 12:08:51;;;;;;;25.77;20.87;;;;;;;;;;5054907;28;20496;-73
2022/05/07 12:11:20;;;;;;;23.33;20.77;;;;;;;;;;5054811;28;20495;-73
2022/05/07 12:13:47;;;;;;;23.43;20.73;;;;;;;;;;5054835;28;20446;-72
2022/05/07 12:18:59;;;;;;;20.73;18.53;;;;;;;;;;5054907;28;20495;-72
2022/05/07 12:29:51;;;;;;;22.67;19.10;;;;;;;;;;5054698;28;20408;-71
2022/05/07 12:32:19;;;;;;;25.83;20.37;;;;;;;;;;5055215;28;20487;-71
2022/05/07 12:34:46;;;;;;;20.70;18.13;;;;;;;;;;5054482;28;20477;-72
2022/05/07 12:37:14;;;;;;;19.03;16.97;;;;;;;;;;5054686;28;20452;-71
2022/05/07 12:39:41;;;;;;;20.77;17.60;;;;;;;;;;5054141;28;21013;-71
2022/05/07 12:42:11;;;;;;;23.00;18.60;;;;;;;;;;5054338;28;20441;-72
2022/05/07 12:44:38;;;;;;;17.83;15.87;;;;;;;;;;5054401;28;20517;-71
2022/05/07 12:47:06;;;;;;;20.93;18.67;;;;;;;;;;5054431;28;20894;-71
2022/05/07 12:49:34;;;;;;;26.93;16.07;;;;;;;;;;5054540;28;20453;-71
2022/05/07 12:52:02;;;;;;;19.40;16.90;;;;;;;;;;5054032;28;20442;-71
2022/05/07 12:54:30;;;;;;;19.13;15.10;;;;;;;;;;5054245;28;20433;-71
2022/05/07 12:56:57;;;;;;;16.10;13.90;;;;;;;;;;5054211;28;20449;-71
2022/05/07 12:59:25;;;;;;;22.23;13.93;;;;;;;;;;5054058;28;20438;-71
2022/05/07 13:01:53;;;;;;;15.07;13.53;;;;;;;;;;5053861;28;20442;-71
2022/05/07 13:04:22;;;;;;;15.30;13.73;;;;;;;;;;5053689;28;20455;-71
2022/05/07 13:06:49;;;;;;;16.30;14.03;;;;;;;;;;5053851;28;20458;-71
2022/05/07 13:09:16;;;;;;;16.60;13.17;;;;;;;;;;5053405;28;20586;-71
2022/05/07 13:11:44;;;;;;;15.20;13.50;;;;;;;;;;5053623;28;20539;-71
2022/05/07 13:14:11;;;;;;;16.37;13.10;;;;;;;;;;5053801;28;20461;-71
2022/05/07 13:16:40;;;;;;;17.53;15.37;;;;;;;;;;5053488;28;20439;-71
2022/05/07 13:19:07;;;;;;;19.13;15.83;;;;;;;;;;5053696;28;20445;-72
2022/05/07 13:21:35;;;;;;;18.67;16.67;;;;;;;;;;5053013;28;20445;-72
2022/05/07 13:24:02;;;;;;;18.07;15.43;;;;;;;;;;5053816;28;20801;-70
2022/05/07 13:26:29;;;;;;;19.10;14.23;;;;;;;;;;5053330;28;20524;-68
2022/05/07 13:28:57;;;;;;;15.77;14.07;;;;;;;;;;5053285;28;20475;-71
2022/05/07 13:31:24;;;;;;;22.97;14.57;;;;;;;;;;5053420;28;20437;-71
2022/05/07 13:33:52;;;;;;;24.20;16.30;;;;;;;;;;5053426;28;20441;-71
2022/05/07 13:36:21;;;;;;;15.90;14.23;;;;;;;;;;5053265;28;20451;-67
2022/05/07 13:38:48;;;;;;;17.97;14.77;;;;;;;;;;5053716;28;20458;-72
2022/05/07 13:41:20;;;;;;;18.03;14.57;;;;;;;;;;5053576;28;20451;-73
2022/05/07 13:43:47;;;;;;;15.20;13.67;;;;;;;;;;5053293;28;20961;-73
2022/05/07 13:46:19;;;;;;;16.00;13.70;;;;;;;;;;5052982;28;20442;-73
2022/05/07 13:48:46;;;;;;;17.97;13.93;;;;;;;;;;5053174;28;20536;-72
2022/05/07 13:51:16;;;;;;;13.83;10.30;;;;;;;;;;5053076;28;20524;-73
2022/05/07 13:53:43;;;;;;;11.17;9.90;;;;;;;;;;5053569;28;20487;-73
2022/05/07 13:56:10;;;;;;;11.27;8.93;;;;;;;;;;5053252;28;20449;-73
2022/05/07 13:58:41;;;;;;;10.23;8.77;;;;;;;;;;5052958;28;20453;-73
2022/05/07 14:01:09;;;;;;;16.33;10.73;;;;;;;;;;5053470;28;20520;-74
2022/05/07 14:03:36;;;;;;;13.47;9.90;;;;;;;;;;5053404;28;20450;-73
2022/05/07 14:06:04;;;;;;;32.50;11.40;;;;;;;;;;5052941;28;20449;-74
2022/05/07 14:08:32;;;;;;;11.77;10.03;;;;;;;;;;5052597;28;20507;-73
2022/05/07 14:11:01;;;;;;;14.33;10.23;;;;;;;;;;5053079;28;20533;-73
2022/05/07 14:13:28;;;;;;;15.03;12.50;;;;;;;;;;5052892;28;20468;-73
2022/05/07 14:15:56;;;;;;;16.83;10.77;;;;;;;;;;5053058;28;20450;-73
2022/05/07 14:18:23;;;;;;;13.50;12.17;;;;;;;;;;5052779;28;20446;-73
2022/05/07 14:20:50;;;;;;;16.67;11.63;;;;;;;;;;5053121;28;20538;-73
2022/05/07 14:23:17;;;;;;;13.83;11.77;;;;;;;;;;5052947;28;20445;-73
2022/05/07 14:25:46;;;;;;;13.63;11.53;;;;;;;;;;5053179;28;20803;-73
2022/05/07 14:28:13;;;;;;;19.13;11.07;;;;;;;;;;5053003;28;20488;-73
2022/05/07 14:30:41;;;;;;;11.07;9.30;;;;;;;;;;5052941;28;20442;-73
2022/05/07 14:33:08;;;;;;;15.33;9.23;;;;;;;;;;5054255;28;20441;-72
2022/05/07 14:35:36;;;;;;;14.57;9.23;;;;;;;;;;5056498;28;20436;-73
2022/05/07 14:38:06;;;;;;;11.00;9.67;;;;;;;;;;5056907;28;20445;-72
2022/05/07 14:40:33;;;;;;;17.80;11.80;;;;;;;;;;5056772;28;20438;-72
2022/05/07 14:43:02;;;;;;;13.10;11.23;;;;;;;;;;5056822;28;20448;-72
2022/05/07 14:45:30;;;;;;;11.73;9.20;;;;;;;;;;5056578;28;20447;-72
2022/05/07 14:47:57;;;;;;;10.20;8.83;;;;;;;;;;5056116;28;20476;-72
2022/05/07 14:50:25;;;;;;;16.53;9.33;;;;;;;;;;5056351;28;20448;-72
2022/05/07 14:52:52;;;;;;;12.07;9.60;;;;;;;;;;5056555;28;20807;-73
2022/05/07 14:55:20;;;;;;;10.33;9.27;;;;;;;;;;5057161;28;20803;-71
2022/05/07 14:57:47;;;;;;;7.97;7.17;;;;;;;;;;5056782;28;20443;-72
2022/05/07 15:00:16;;;;;;;11.43;6.60;;;;;;;;;;5056435;28;20446;-74
2022/05/07 15:02:47;;;;;;;11.30;7.10;;;;;;;;;;5056344;28;20441;-73
2022/05/07 15:05:15;;;;;;;10.37;5.60;;;;;;;;;;5056006;28;20432;-72